Time;durP1;ratioP1;P1;durP2;ratioP2;P2;SDS_P1;SDS_P2;PMS_P1;PMS_P2;Temp;Humidity;BMP_temperature;BMP_pressure;BME280_temperature;BME280_humidity;BME280_pressure;Samples;Min_cycle;Max_cycle;Signal;HPM_P1;HPM_P2
2022/06/25 00:00:35;;;;;;;23.45;20.33;;;18.80;99.90;;;;;;5054857;28;20039;-76
2022/06/25 00:03:01;;;;;;;22.15;19.80;;;18.80;99.90;;;;;;5040148;28;20530;-77
2022/06/25 00:05:29;;;;;;;26.58;21.42;;;18.80;99.90;;;;;;5059829;28;20036;-76
2022/06/25 00:08:00;;;;;;;24.45;21.85;;;18.70;99.90;;;;;;5059433;28;20470;-78
2022/06/25 00:10:26;;;;;;;23.13;20.83;;;18.70;99.90;;;;;;5082757;28;20120;-78
2022/06/25 00:12:52;;;;;;;23.20;19.63;;;18.70;99.90;;;;;;5039293;28;20037;-79
2022/06/25 00:15:17;;;;;;;25.52;22.65;;;18.60;99.90;;;;;;5046705;28;20469;-77
2022/06/25 00:17:43;;;;;;;24.88;22.30;;;18.60;99.90;;;;;;5071559;28;20028;-78
2022/06/25 00:20:10;;;;;;;25.90;22.52;;;18.60;99.90;;;;;;5071350;28;20486;-78
2022/06/25 00:22:36;;;;;;;25.05;22.35;;;18.60;99.90;;;;;;5063440;28;20044;-79
2022/06/25 00:25:02;;;;;;;24.85;22.15;;;18.60;99.90;;;;;;5051556;28;20492;-79
2022/06/25 00:27:28;;;;;;;27.77;23.83;;;18.50;99.90;;;;;;5052055;28;20036;-78
2022/06/25 00:29:54;;;;;;;27.75;23.58;;;18.50;99.90;;;;;;5059805;28;20052;-78
2022/06/25 00:32:19;;;;;;;25.00;22.30;;;18.50;99.90;;;;;;5056417;28;20040;-78
2022/06/25 00:34:45;;;;;;;25.33;22.63;;;18.40;99.90;;;;;;5076505;28;20028;-78
2022/06/25 00:37:11;;;;;;;29.13;24.90;;;18.40;99.90;;;;;;5068425;28;20127;-78
2022/06/25 00:39:37;;;;;;;25.92;23.08;;;18.40;99.90;;;;;;5085460;28;20130;-79
2022/06/25 00:42:11;;;;;;;27.48;23.92;;;18.40;99.90;;;;;;5073276;28;20047;-79
2022/06/25 00:44:37;;;;;;;30.77;26.10;;;18.30;99.90;;;;;;5068299;28;20051;-79
2022/06/25 00:47:07;;;;;;;26.85;23.88;;;18.30;99.90;;;;;;5090902;28;20044;-79
2022/06/25 00:49:33;;;;;;;26.52;23.65;;;18.30;99.90;;;;;;5087526;28;20069;-79
2022/06/25 00:52:02;;;;;;;24.98;22.15;;;18.30;99.90;;;;;;5065514;28;20039;-79
2022/06/25 00:54:35;;;;;;;26.10;22.02;;;18.30;99.90;;;;;;5082058;28;20131;-78
2022/06/25 00:57:04;;;;;;;26.92;24.08;;;18.30;99.90;;;;;;5072683;28;20126;-79
2022/06/25 00:59:37;;;;;;;27.42;22.92;;;18.30;99.90;;;;;;5089347;28;20086;-78
2022/06/25 01:02:03;;;;;;;26.55;22.52;;;18.30;99.90;;;;;;5089390;28;20042;-78
2022/06/25 01:04:29;;;;;;;25.05;22.38;;;18.30;99.90;;;;;;5085998;28;20531;-79
2022/06/25 01:06:55;;;;;;;27.10;23.02;;;18.30;99.90;;;;;;5045717;28;20108;-78
2022/06/25 01:09:21;;;;;;;25.75;21.83;;;18.20;99.90;;;;;;5069835;28;20143;-78
2022/06/25 01:11:47;;;;;;;26.55;22.60;;;18.20;99.90;;;;;;5072550;28;20495;-79
2022/06/25 01:14:14;;;;;;;26.20;22.83;;;18.10;99.90;;;;;;5053325;28;20039;-79
2022/06/25 01:16:40;;;;;;;25.90;22.70;;;18.10;99.90;;;;;;5055403;28;20278;-78
2022/06/25 01:19:08;;;;;;;27.73;22.30;;;18.00;99.90;;;;;;5050711;28;20028;-79
2022/06/25 01:21:35;;;;;;;26.05;22.85;;;18.00;99.90;;;;;;5075007;28;20496;-78
2022/06/25 01:24:02;;;;;;;25.67;20.83;;;18.00;99.90;;;;;;5089048;28;20044;-79
2022/06/25 01:26:28;;;;;;;22.65;20.25;;;18.00;99.90;;;;;;5036291;28;20044;-77
2022/06/25 01:28:54;;;;;;;25.83;21.15;;;18.00;99.90;;;;;;5067055;28;20055;-77
2022/06/25 01:31:19;;;;;;;23.27;20.70;;;18.00;99.90;;;;;;5085556;28;20595;-78
2022/06/25 01:33:45;;;;;;;25.70;21.38;;;17.90;99.90;;;;;;5045052;28;20040;-79
2022/06/25 01:36:11;;;;;;;25.02;22.38;;;18.00;99.90;;;;;;5072630;28;20468;-78
2022/06/25 01:38:36;;;;;;;22.27;19.88;;;17.90;99.90;;;;;;5069595;28;20556;-78
2022/06/25 01:41:02;;;;;;;22.38;19.80;;;17.90;99.90;;;;;;5068405;28;20177;-78
2022/06/25 01:43:28;;;;;;;25.52;19.98;;;17.90;99.90;;;;;;5067816;28;20035;-78
2022/06/25 01:45:53;;;;;;;23.52;19.83;;;17.90;99.90;;;;;;5069212;28;20040;-79
2022/06/25 01:48:19;;;;;;;22.13;19.52;;;17.80;99.90;;;;;;5067334;28;20036;-79
2022/06/25 01:50:45;;;;;;;20.83;18.63;;;17.80;99.90;;;;;;5071781;28;20127;-78
2022/06/25 01:53:10;;;;;;;21.30;19.00;;;17.80;99.90;;;;;;5065308;28;20492;-78
2022/06/25 01:55:36;;;;;;;23.05;19.45;;;17.80;99.90;;;;;;5053782;28;20517;-78
2022/06/25 01:58:02;;;;;;;22.80;18.52;;;17.80;99.90;;;;;;5092144;28;20043;-78
2022/06/25 02:00:30;;;;;;;19.60;16.52;;;17.80;99.90;;;;;;5089023;28;20194;-78
2022/06/25 02:02:56;;;;;;;20.13;18.02;;;17.70;99.90;;;;;;5088258;28;20037;-78
2022/06/25 02:08:11;;;;;;;18.90;16.90;;;17.70;99.90;;;;;;5091143;28;20416;-79
2022/06/25 02:10:37;;;;;;;19.83;17.73;;;17.70;99.90;;;;;;5091848;28;20489;-79
2022/06/25 02:13:03;;;;;;;19.02;17.10;;;17.70;99.90;;;;;;5087068;28;20104;-77
2022/06/25 02:15:28;;;;;;;19.17;17.17;;;17.60;99.90;;;;;;5089610;28;20514;-78
2022/06/25 02:17:54;;;;;;;20.33;18.23;;;17.60;99.90;;;;;;5069578;28;20051;-78
2022/06/25 02:20:21;;;;;;;18.75;16.45;;;17.70;99.90;;;;;;5087191;28;20028;-78
2022/06/25 02:22:47;;;;;;;20.15;17.48;;;17.60;99.90;;;;;;5080094;28;20088;-78
2022/06/25 02:25:13;;;;;;;19.00;16.98;;;17.60;99.90;;;;;;5086634;28;20488;-79
2022/06/25 02:27:39;;;;;;;20.67;17.42;;;17.50;99.90;;;;;;5084120;28;20094;-78
2022/06/25 02:30:05;;;;;;;21.75;17.52;;;17.50;99.90;;;;;;5085992;28;20176;-78
2022/06/25 02:32:31;;;;;;;18.38;16.50;;;17.50;99.90;;;;;;5073327;28;20096;-78
2022/06/25 02:34:57;;;;;;;20.13;17.02;;;17.50;99.90;;;;;;5066431;28;20122;-79
2022/06/25 02:37:22;;;;;;;19.02;17.00;;;17.50;99.90;;;;;;5086314;28;20162;-79
2022/06/25 02:39:48;;;;;;;19.75;16.85;;;17.50;99.90;;;;;;5065437;28;20032;-78
2022/06/25 02:42:14;;;;;;;17.67;15.82;;;17.50;99.90;;;;;;5074210;28;20047;-78
2022/06/25 02:44:39;;;;;;;17.98;16.10;;;17.50;99.90;;;;;;5086371;28;20061;-80
2022/06/25 02:47:05;;;;;;;18.15;16.27;;;17.40;99.90;;;;;;5081729;28;20039;-78
2022/06/25 02:49:31;;;;;;;22.23;16.65;;;17.40;99.90;;;;;;5074036;28;20035;-79
2022/06/25 02:51:56;;;;;;;20.50;17.33;;;17.40;99.90;;;;;;5081215;28;20032;-79
2022/06/25 02:54:22;;;;;;;17.38;15.57;;;17.40;99.90;;;;;;5074804;28;20441;-79
2022/06/25 02:59:32;;;;;;;17.45;15.40;;;17.40;99.90;;;;;;5079160;28;20040;-79
2022/06/25 03:01:58;;;;;;;18.50;16.60;;;17.40;99.90;;;;;;5073011;28;20131;-79
2022/06/25 03:04:25;;;;;;;17.20;15.00;;;17.40;99.90;;;;;;5078566;28;20047;-79
2022/06/25 03:06:51;;;;;;;16.98;15.23;;;17.30;99.90;;;;;;5099212;28;20089;-80
2022/06/25 03:09:17;;;;;;;16.63;14.85;;;17.30;99.90;;;;;;5072696;28;20070;-78
2022/06/25 03:11:43;;;;;;;16.20;14.52;;;17.30;99.90;;;;;;5059138;28;20055;-78
2022/06/25 03:14:08;;;;;;;18.40;15.23;;;17.30;99.90;;;;;;5087607;28;20538;-79
2022/06/25 03:16:34;;;;;;;16.77;14.98;;;17.20;99.90;;;;;;5079414;28;20112;-79
2022/06/25 03:19:01;;;;;;;18.02;15.25;;;17.20;99.90;;;;;;5081844;28;20056;-79
2022/06/25 03:21:27;;;;;;;16.00;14.35;;;17.20;99.90;;;;;;5087719;28;20101;-79
2022/06/25 03:23:52;;;;;;;16.27;13.93;;;17.10;99.90;;;;;;5074027;28;20049;-79
2022/06/25 03:26:18;;;;;;;16.27;14.30;;;17.10;99.90;;;;;;5073593;28;20437;-79
2022/06/25 03:28:44;;;;;;;15.80;14.20;;;17.10;99.90;;;;;;5074038;28;20373;-79
2022/06/25 03:31:10;;;;;;;14.65;13.15;;;17.10;99.90;;;;;;5073485;28;20069;-79
2022/06/25 03:33:36;;;;;;;16.20;14.05;;;17.10;99.90;;;;;;5088229;28;20051;-79
2022/06/25 03:36:02;;;;;;;14.48;13.07;;;17.10;99.90;;;;;;5070966;28;20427;-78
2022/06/25 03:38:28;;;;;;;14.45;13.00;;;17.10;99.90;;;;;;5073158;28;20488;-78
2022/06/25 03:41:38;;;;;;;14.00;12.68;;;17.00;99.90;;;;;;5054781;28;20039;-78
2022/06/25 03:43:39;;;;;;;15.30;12.88;;;17.00;99.90;;;;;;5076082;28;20067;-78
2022/06/25 03:46:06;;;;;;;14.60;11.95;;;17.00;99.90;;;;;;5087679;28;20144;-78
2022/06/25 03:48:31;;;;;;;;;;;17.00;99.90;;;;;;5083424;28;20468;-79
2022/06/25 03:50:57;;;;;;;13.45;12.05;;;17.10;99.90;;;;;;5084534;28;19923;-78
2022/06/25 03:53:24;;;;;;;13.18;11.88;;;17.10;99.90;;;;;;5078729;28;20051;-78
2022/06/25 03:55:49;;;;;;;;;;;17.00;99.90;;;;;;5066164;28;20086;-78
2022/06/25 03:58:15;;;;;;;13.55;12.13;;;17.10;99.90;;;;;;5073761;28;19955;-79
2022/06/25 04:00:41;;;;;;;13.95;12.55;;;17.10;99.90;;;;;;5069272;28;20496;-79
2022/06/25 04:03:06;;;;;;;13.85;12.52;;;17.10;99.90;;;;;;5071016;28;20505;-79
2022/06/25 04:05:33;;;;;;;14.57;12.73;;;17.10;99.90;;;;;;5066678;28;20036;-79
2022/06/25 04:07:58;;;;;;;13.63;12.23;;;17.00;99.90;;;;;;5074354;28;20336;-78
2022/06/25 04:10:24;;;;;;;13.70;12.38;;;17.00;99.90;;;;;;5047289;28;20052;-78
2022/06/25 04:12:50;;;;;;;12.63;11.38;;;17.00;99.90;;;;;;5071843;28;20446;-78
2022/06/25 04:15:15;;;;;;;14.98;11.25;;;17.00;99.90;;;;;;5072747;28;20486;-79
2022/06/25 04:17:41;;;;;;;12.65;11.27;;;17.10;99.90;;;;;;5066777;28;20540;-79
2022/06/25 04:20:07;;;;;;;11.85;10.75;;;17.10;99.90;;;;;;5049282;28;20443;-79
2022/06/25 04:22:32;;;;;;;13.13;11.55;;;17.10;99.90;;;;;;5073269;28;20036;-79
2022/06/25 04:24:58;;;;;;;14.45;11.10;;;17.10;99.90;;;;;;5071181;28;20058;-79
2022/06/25 04:30:08;;;;;;;14.10;11.73;;;17.10;99.90;;;;;;5061035;28;20047;-79
2022/06/25 04:32:34;;;;;;;13.25;11.82;;;17.10;99.90;;;;;;5073479;28;20036;-79
2022/06/25 04:35:00;;;;;;;13.15;11.85;;;17.10;99.90;;;;;;5069157;28;20043;-79
2022/06/25 04:37:26;;;;;;;16.35;11.48;;;17.20;99.90;;;;;;5053206;28;20050;-79
2022/06/25 04:39:51;;;;;;;14.50;11.50;;;17.20;99.90;;;;;;5062060;28;20468;-79
2022/06/25 04:42:17;;;;;;;13.70;10.73;;;17.20;99.90;;;;;;5072877;28;20082;-79
2022/06/25 04:44:42;;;;;;;12.85;11.55;;;17.20;99.90;;;;;;5071098;28;20085;-78
2022/06/25 04:47:09;;;;;;;14.25;11.63;;;17.30;99.90;;;;;;5083428;28;20024;-78
2022/06/25 04:49:35;;;;;;;13.57;11.98;;;17.30;99.90;;;;;;5073265;28;20032;-79
2022/06/25 04:52:01;;;;;;;13.48;12.18;;;17.30;99.90;;;;;;5071783;28;20036;-79
2022/06/25 04:54:27;;;;;;;15.00;11.82;;;17.30;99.90;;;;;;5067918;28;20084;-77
2022/06/25 04:56:52;;;;;;;13.20;11.80;;;17.30;99.90;;;;;;5082398;28;20052;-80
2022/06/25 04:59:18;;;;;;;13.15;11.15;;;17.30;99.90;;;;;;5067939;28;20613;-79
2022/06/25 05:01:44;;;;;;;13.98;11.52;;;17.30;99.90;;;;;;5056186;28;20043;-79
2022/06/25 05:04:10;;;;;;;13.43;11.98;;;17.30;99.90;;;;;;5072614;28;20047;-78
2022/06/25 05:06:36;;;;;;;13.88;12.07;;;17.30;99.90;;;;;;5072934;28;20537;-78
2022/06/25 05:09:02;;;;;;;12.20;11.02;;;17.40;99.90;;;;;;5051013;28;20055;-79
2022/06/25 05:11:28;;;;;;;12.27;10.70;;;17.40;99.90;;;;;;5053700;28;20513;-78
2022/06/25 05:13:53;;;;;;;12.02;10.82;;;17.40;99.90;;;;;;5065033;28;20380;-78
2022/06/25 05:16:19;;;;;;;12.32;10.30;;;17.50;99.90;;;;;;5070379;28;20072;-79
2022/06/25 05:18:47;;;;;;;11.60;9.88;;;17.60;99.90;;;;;;5065432;28;20036;-80
2022/06/25 05:21:14;;;;;;;11.88;10.35;;;17.60;99.90;;;;;;5056850;28;20040;-79
2022/06/25 05:23:39;;;;;;;11.75;10.55;;;17.70;99.90;;;;;;5052814;28;20547;-79
2022/06/25 05:26:05;;;;;;;11.30;10.20;;;17.80;99.90;;;;;;5056398;28;20138;-79
2022/06/25 05:28:31;;;;;;;13.95;10.45;;;17.80;99.90;;;;;;5067125;28;20044;-78
2022/06/25 05:30:57;;;;;;;11.50;9.85;;;17.90;99.90;;;;;;5053416;28;20468;-79
2022/06/25 05:33:23;;;;;;;10.85;9.75;;;18.00;99.90;;;;;;5071532;28;20499;-79
2022/06/25 05:35:48;;;;;;;12.75;9.98;;;18.20;99.90;;;;;;5070234;28;20442;-79
2022/06/25 05:38:14;;;;;;;11.52;9.80;;;18.30;99.90;;;;;;5086516;28;20048;-79
2022/06/25 05:40:40;;;;;;;11.10;9.40;;;18.40;99.90;;;;;;5061821;28;20036;-79
2022/06/25 05:43:06;;;;;;;10.10;8.90;;;18.60;99.90;;;;;;5072343;28;20044;-79
2022/06/25 05:45:32;;;;;;;10.50;9.50;;;18.70;99.90;;;;;;5052547;28;20122;-79
2022/06/25 05:47:58;;;;;;;13.07;8.93;;;18.80;99.90;;;;;;5064836;28;20089;-79
2022/06/25 05:50:24;;;;;;;10.80;9.70;;;19.00;99.90;;;;;;5083933;28;20558;-79
2022/06/25 05:52:49;;;;;;;9.73;8.52;;;19.00;99.90;;;;;;5088953;28;20032;-79
2022/06/25 05:55:15;;;;;;;10.40;8.65;;;19.10;99.90;;;;;;5071462;28;20085;-79
2022/06/25 05:57:41;;;;;;;9.85;8.80;;;19.20;99.90;;;;;;5063055;28;20127;-79
2022/06/25 06:00:10;;;;;;;9.38;8.38;;;19.40;99.90;;;;;;5059451;28;20365;-79
2022/06/25 06:02:36;;;;;;;8.63;7.40;;;19.40;99.90;;;;;;5058786;28;20040;-79
2022/06/25 06:05:02;;;;;;;9.05;7.55;;;19.60;99.90;;;;;;5071860;28;20047;-78
2022/06/25 06:07:28;;;;;;;8.60;6.90;;;19.90;99.90;;;;;;5068614;28;20044;-79
2022/06/25 06:09:54;;;;;;;7.93;6.65;;;20.30;99.90;;;;;;5064216;28;20051;-78
2022/06/25 06:12:20;;;;;;;;;;;20.70;99.90;;;;;;5085872;28;20036;-78
2022/06/25 06:14:45;;;;;;;7.53;6.68;;;21.00;99.90;;;;;;5066504;28;20002;-80
2022/06/25 06:17:11;;;;;;;8.90;6.30;;;21.40;99.90;;;;;;5062859;28;20040;-80
2022/06/25 06:19:37;;;;;;;7.03;6.07;;;21.70;99.90;;;;;;5049073;28;20040;-79
2022/06/25 06:22:03;;;;;;;8.18;6.05;;;21.90;99.90;;;;;;5069405;28;20097;-80
2022/06/25 06:24:28;;;;;;;8.63;5.93;;;22.10;99.90;;;;;;5055846;28;20032;-81
2022/06/25 06:26:54;;;;;;;8.52;5.72;;;22.30;99.90;;;;;;5071658;28;20136;-80
2022/06/25 06:29:20;;;;;;;7.57;5.40;;;22.50;99.90;;;;;;5050304;28;20048;-80
2022/06/25 06:31:45;;;;;;;8.32;6.18;;;22.60;99.90;;;;;;5068691;28;20071;-79
2022/06/25 06:34:11;;;;;;;7.25;5.15;;;22.60;99.90;;;;;;5056498;28;20059;-85
2022/06/25 06:36:37;;;;;;;7.18;5.93;;;22.70;99.90;;;;;;5056439;28;20035;-86
2022/06/25 06:39:03;;;;;;;7.50;5.07;;;22.70;99.90;;;;;;5055956;28;20036;-86
2022/06/25 06:41:28;;;;;;;7.47;4.78;;;22.80;99.90;;;;;;5076023;28;20036;-86
2022/06/25 06:43:54;;;;;;;6.03;4.53;;;22.90;99.90;;;;;;5028548;28;20046;-83
2022/06/25 06:46:20;;;;;;;10.80;5.00;;;22.90;99.90;;;;;;5069209;28;20031;-86
2022/06/25 06:48:45;;;;;;;;;;;22.90;99.90;;;;;;5042791;28;20208;-85
2022/06/25 06:51:11;;;;;;;8.38;5.07;;;23.00;99.90;;;;;;5059042;28;19916;-86
2022/06/25 06:53:37;;;;;;;;;;;23.10;99.90;;;;;;5068790;28;20048;-84
2022/06/25 06:56:03;;;;;;;6.78;4.45;;;23.20;99.90;;;;;;5054113;28;19920;-84
2022/06/25 06:58:29;;;;;;;6.65;4.40;;;23.40;99.90;;;;;;5047616;28;20131;-84
2022/06/25 07:00:56;;;;;;;5.90;4.57;;;23.40;99.90;;;;;;5069392;28;20437;-87
2022/06/25 07:03:22;;;;;;;6.80;4.50;;;23.40;99.90;;;;;;5069384;28;20119;-90
2022/06/25 07:05:47;;;;;;;;;;;23.50;99.90;;;;;;5082317;28;20535;-85
2022/06/25 07:08:13;;;;;;;7.82;4.03;;;23.50;99.90;;;;;;5058544;28;19920;-85
2022/06/25 07:10:39;;;;;;;6.90;4.00;;;23.50;99.90;;;;;;5075157;28;20028;-88
2022/06/25 07:13:05;;;;;;;;;;;23.50;99.90;;;;;;5049345;28;20029;-87
2022/06/25 07:15:30;;;;;;;5.05;3.60;;;23.40;99.90;;;;;;5067229;28;19941;-85
2022/06/25 07:17:56;;;;;;;;;;;23.50;99.90;;;;;;5085598;28;20040;-83
2022/06/25 07:20:22;;;;;;;5.10;3.40;;;23.50;99.90;;;;;;5064840;28;19916;-81
2022/06/25 07:22:47;;;;;;;;;;;23.70;99.90;;;;;;5079438;28;20146;-80
2022/06/25 07:25:13;;;;;;;6.82;4.00;;;23.90;99.90;;;;;;5075220;28;20057;-81
2022/06/25 07:27:39;;;;;;;;;;;24.20;99.90;;;;;;5070297;28;20424;-82
2022/06/25 07:30:05;;;;;;;5.03;3.00;;;24.30;99.90;;;;;;5059941;28;19916;-80
2022/06/25 07:32:31;;;;;;;4.68;3.28;;;24.30;99.90;;;;;;5084876;28;20040;-81
2022/06/25 07:34:57;;;;;;;;;;;24.30;99.90;;;;;;5056752;28;20400;-82
2022/06/25 07:37:22;;;;;;;4.75;3.20;;;24.40;99.90;;;;;;5085413;28;20415;-80
2022/06/25 07:39:48;;;;;;;;;;;24.30;99.90;;;;;;5073245;28;20395;-84
2022/06/25 07:42:14;;;;;;;4.80;3.10;;;24.30;99.90;;;;;;5078749;28;19923;-81
2022/06/25 07:44:39;;;;;;;;;;;24.30;99.90;;;;;;5032910;28;20444;-83
2022/06/25 07:47:05;;;;;;;4.13;2.60;;;24.40;99.90;;;;;;5079348;28;19943;-83
2022/06/25 07:51:56;;;;;;;5.30;2.70;;;24.70;99.90;;;;;;5076320;28;20047;-83
2022/06/25 07:52:16;;;;;;;3.97;2.40;;;24.90;99.90;;;;;;5071531;28;20044;-84
2022/06/25 07:54:42;;;;;;;6.53;2.30;;;25.10;99.90;;;;;;5055240;28;20039;-82
2022/06/25 07:57:08;;;;;;;;;;;25.30;99.90;;;;;;5037560;28;20047;-83
2022/06/25 07:59:34;;;;;;;3.13;1.85;;;25.20;99.90;;;;;;5060148;28;20299;-80
2022/06/25 08:01:59;;;;;;;5.93;1.80;;;25.40;99.90;;;;;;5029090;28;20043;-81
2022/06/25 08:04:25;;;;;;;;;;;25.60;99.90;;;;;;5069921;28;20420;-80
2022/06/25 08:06:51;;;;;;;4.45;1.88;;;25.70;99.90;;;;;;5064592;28;19995;-80
2022/06/25 08:09:16;;;;;;;4.15;1.90;;;25.50;99.90;;;;;;5069463;28;20534;-80
2022/06/25 08:11:42;;;;;;;5.43;2.22;;;25.40;99.90;;;;;;5063467;28;20130;-79
2022/06/25 08:14:08;;;;;;;4.55;2.30;;;25.50;99.90;;;;;;5065745;28;20089;-80
2022/06/25 08:16:33;;;;;;;4.68;1.48;;;25.60;99.90;;;;;;5054097;28;20035;-81
2022/06/25 08:18:59;;;;;;;2.33;1.75;;;25.90;99.90;;;;;;5065641;28;20092;-81
2022/06/25 08:21:25;;;;;;;5.60;1.60;;;25.90;99.90;;;;;;5086146;28;20044;-80
2022/06/25 08:23:50;;;;;;;3.17;1.85;;;26.00;99.90;;;;;;5067197;28;20535;-81
2022/06/25 08:26:16;;;;;;;3.78;1.77;;;26.10;99.90;;;;;;5066615;28;20446;-81
2022/06/25 08:28:44;;;;;;;3.72;1.70;;;26.40;99.90;;;;;;5068307;28;20036;-81
2022/06/25 08:31:10;;;;;;;3.10;1.83;;;26.60;99.90;;;;;;5026884;28;20542;-80
2022/06/25 08:33:36;;;;;;;4.25;1.70;;;26.70;99.90;;;;;;5072461;28;20032;-83
2022/06/25 08:36:02;;;;;;;4.15;2.30;;;26.80;99.90;;;;;;5073969;28;20122;-80
2022/06/25 08:38:28;;;;;;;5.25;1.63;;;27.00;99.90;;;;;;5052362;28;20031;-81
2022/06/25 08:41:01;;;;;;;5.70;1.95;;;27.00;99.90;;;;;;5069662;28;20047;-85
2022/06/25 08:43:27;;;;;;;3.88;1.65;;;27.00;99.90;;;;;;5066279;28;20051;-85
2022/06/25 08:45:55;;;;;;;4.30;1.77;;;26.90;99.90;;;;;;5054949;28;20036;-85
2022/06/25 08:48:29;;;;;;;6.65;1.92;;;26.60;99.90;;;;;;5055722;28;20502;-82
2022/06/25 08:50:55;;;;;;;5.22;1.88;;;26.20;99.90;;;;;;5072943;28;20384;-82
2022/06/25 08:53:21;;;;;;;5.00;1.98;;;26.00;99.90;;;;;;5072520;28;20424;-82
2022/06/25 08:55:48;;;;;;;4.78;1.42;;;25.70;99.90;;;;;;5052616;28;20044;-85
2022/06/25 08:58:14;;;;;;;3.65;1.40;;;25.50;99.90;;;;;;5084470;28;20044;-83
2022/06/25 09:00:42;;;;;;;3.92;1.50;;;25.60;99.90;;;;;;5061671;28;20107;-82
2022/06/25 09:03:09;;;;;;;4.95;1.70;;;25.90;99.90;;;;;;5089918;28;20097;-82
2022/06/25 09:05:37;;;;;;;4.47;1.75;;;26.30;99.90;;;;;;5065420;28;20035;-82
2022/06/25 09:08:06;;;;;;;4.20;1.65;;;26.60;99.90;;;;;;5089791;28;20547;-83
2022/06/25 09:10:33;;;;;;;4.63;2.20;;;26.50;99.90;;;;;;5073958;28;20448;-86
2022/06/25 09:13:06;;;;;;;2.90;1.45;;;26.40;99.90;;;;;;5075723;28;20042;-87
2022/06/25 09:15:34;;;;;;;8.77;1.40;;;26.50;99.90;;;;;;5090059;28;20067;-87
2022/06/25 09:18:18;;;;;;;2.30;1.35;;;26.40;99.90;;;;;;5065651;28;20654;-87
2022/06/25 09:21:03;;;;;;;2.58;1.30;;;26.60;99.90;;;;;;5077921;28;20079;-87
2022/06/25 09:23:54;;;;;;;3.53;1.50;;;26.40;99.90;;;;;;5082130;28;20036;-84
2022/06/25 09:26:20;;;;;;;4.00;1.58;;;26.40;99.90;;;;;;5069694;28;20035;-84
2022/06/25 09:28:46;;;;;;;4.80;1.40;;;26.20;99.90;;;;;;5050358;28;20035;-84
2022/06/25 09:31:12;;;;;;;;;;;26.10;99.90;;;;;;5072089;28;20092;-84
2022/06/25 09:33:39;;;;;;;3.83;1.70;;;26.10;99.90;;;;;;5088623;28;19920;-84
2022/06/25 09:36:07;;;;;;;3.20;1.40;;;26.00;99.90;;;;;;5090896;28;20054;-82
2022/06/25 09:38:33;;;;;;;4.45;1.20;;;26.30;99.90;;;;;;5080202;28;20063;-84
2022/06/25 09:41:01;;;;;;;3.75;1.30;;;26.60;99.90;;;;;;5069824;28;20067;-83
2022/06/25 09:43:27;;;;;;;5.20;1.50;;;26.70;99.90;;;;;;5069469;28;20039;-84
2022/06/25 09:45:56;;;;;;;2.40;1.30;;;26.70;99.90;;;;;;5080122;28;20044;-82
2022/06/25 09:48:27;;;;;;;3.10;1.60;;;26.80;99.90;;;;;;5067060;28;20079;-79
2022/06/25 09:51:09;;;;;;;3.70;1.40;;;27.10;99.90;;;;;;5084482;28;20557;-82
2022/06/25 09:53:49;;;;;;;3.03;1.52;;;27.20;99.90;;;;;;5084751;28;20036;-83
2022/06/25 09:56:17;;;;;;;3.42;1.25;;;27.40;99.90;;;;;;5069333;28;20056;-82
2022/06/25 09:58:43;;;;;;;3.00;1.17;;;27.30;99.90;;;;;;5078268;28;20036;-83
2022/06/25 10:01:10;;;;;;;3.13;1.17;;;27.20;99.90;;;;;;5063488;28;20090;-85
2022/06/25 10:03:39;;;;;;;2.95;0.80;;;27.20;99.90;;;;;;5060991;28;20036;-84
2022/06/25 10:06:05;;;;;;;3.42;0.90;;;27.30;99.90;;;;;;5026974;28;20493;-87
2022/06/25 10:08:32;;;;;;;3.15;1.10;;;27.40;99.90;;;;;;5061616;28;20036;-86
2022/06/25 10:10:58;;;;;;;2.70;0.98;;;27.20;99.90;;;;;;5048838;28;20154;-86
2022/06/25 10:13:25;;;;;;;3.00;1.30;;;27.20;99.90;;;;;;5057049;28;20056;-82
2022/06/25 10:15:51;;;;;;;1.77;0.80;;;27.20;99.90;;;;;;5085104;28;20067;-84
2022/06/25 10:18:18;;;;;;;3.03;0.85;;;27.00;99.90;;;;;;5042708;28;20042;-82
2022/06/25 10:20:44;;;;;;;2.45;0.90;;;26.90;99.90;;;;;;5065164;28;20040;-83
2022/06/25 10:23:13;;;;;;;1.63;0.98;;;26.70;99.90;;;;;;5081267;28;20077;-87
2022/06/25 10:25:39;;;;;;;1.83;0.90;;;26.60;99.90;;;;;;5043593;28;20073;-82
2022/06/25 10:28:13;;;;;;;2.17;1.10;;;26.50;99.90;;;;;;5052583;28;20089;-82
2022/06/25 10:30:43;;;;;;;2.25;1.10;;;26.60;99.90;;;;;;5062285;28;20140;-81
2022/06/25 10:33:09;;;;;;;3.28;1.00;;;27.00;99.90;;;;;;5034771;28;20731;-82
2022/06/25 10:35:39;;;;;;;3.80;1.23;;;27.40;99.90;;;;;;5060506;28;20135;-82
2022/06/25 10:38:12;;;;;;;3.40;1.15;;;28.00;99.90;;;;;;5057710;28;20071;-84
2022/06/25 10:40:47;;;;;;;1.83;1.10;;;28.30;99.90;;;;;;5068809;28;20392;-82
2022/06/25 10:43:41;;;;;;;1.65;0.90;;;28.20;99.90;;;;;;5063941;28;20430;-82
2022/06/25 10:46:22;;;;;;;3.58;1.00;;;28.00;99.90;;;;;;5052465;28;20123;-86
2022/06/25 10:49:07;;;;;;;3.75;0.70;;;27.80;99.90;;;;;;5065525;28;20056;-81
2022/06/25 10:51:46;;;;;;;3.33;0.70;;;28.00;99.90;;;;;;5047261;28;20429;-80
2022/06/25 10:54:33;;;;;;;2.53;0.90;;;28.20;99.90;;;;;;5075181;28;20043;-80
2022/06/25 10:57:00;;;;;;;2.22;0.88;;;28.10;99.90;;;;;;5061307;28;20044;-80
2022/06/25 10:59:34;;;;;;;2.60;1.10;;;27.80;99.90;;;;;;5061710;28;20040;-81
2022/06/25 11:02:02;;;;;;;2.75;0.70;;;27.50;99.90;;;;;;5050075;28;20082;-82
2022/06/25 11:04:30;;;;;;;4.40;0.80;;;27.20;99.90;;;;;;5062451;28;20053;-82
2022/06/25 11:07:12;;;;;;;1.92;0.70;;;27.00;99.90;;;;;;5048269;28;20047;-89
2022/06/25 11:09:50;;;;;;;3.20;0.95;;;26.60;99.90;;;;;;5058121;28;20571;-83
2022/06/25 11:12:17;;;;;;;2.42;0.70;;;26.50;99.90;;;;;;5037733;28;20052;-81
2022/06/25 11:14:43;;;;;;;4.15;0.60;;;26.30;99.90;;;;;;5067474;28;20115;-82
2022/06/25 11:17:10;;;;;;;3.08;0.90;;;26.20;99.90;;;;;;5058177;28;20472;-81
2022/06/25 11:19:37;;;;;;;2.95;0.95;;;26.00;99.90;;;;;;5075302;28;20086;-83
2022/06/25 11:22:04;;;;;;;1.92;0.75;;;25.80;99.90;;;;;;5046995;28;20028;-84
2022/06/25 11:24:30;;;;;;;4.72;1.05;;;25.60;99.90;;;;;;5068149;28;20036;-85
2022/06/25 11:29:46;;;;;;;3.87;0.93;;;25.60;99.90;;;;;;5056297;28;20479;-85
2022/06/25 11:32:14;;;;;;;2.08;0.80;;;25.50;99.90;;;;;;5070964;28;20094;-84
2022/06/25 11:34:41;;;;;;;4.68;0.90;;;25.40;99.90;;;;;;5049364;28;20154;-84
2022/06/25 11:37:10;;;;;;;4.45;0.90;;;25.40;99.90;;;;;;5071125;28;20488;-84
2022/06/25 11:39:39;;;;;;;3.08;0.95;;;25.40;99.90;;;;;;5070346;28;20496;-84
2022/06/25 11:42:09;;;;;;;2.53;0.90;;;25.40;99.90;;;;;;5085203;28;20098;-83
2022/06/25 11:44:53;;;;;;;2.28;1.02;;;25.60;99.90;;;;;;5070869;28;20504;-84
2022/06/25 11:47:25;;;;;;;3.00;1.00;;;25.60;99.90;;;;;;5068330;28;20040;-84
2022/06/25 11:49:52;;;;;;;2.65;0.82;;;25.70;99.90;;;;;;5053808;28;20410;-83
2022/06/25 11:52:23;;;;;;;3.58;0.77;;;26.00;99.90;;;;;;5049984;28;20047;-84
2022/06/25 11:54:49;;;;;;;1.65;0.60;;;26.20;99.90;;;;;;5068975;28;20067;-83
2022/06/25 11:57:21;;;;;;;2.95;0.80;;;26.40;99.90;;;;;;5048895;28;20503;-82
2022/06/25 11:59:49;;;;;;;1.92;0.70;;;26.60;99.90;;;;;;5062506;28;20040;-82
2022/06/25 12:02:14;;;;;;;3.03;0.85;;;26.70;99.90;;;;;;5055207;28;20035;-83
2022/06/25 12:04:52;;;;;;;2.50;0.68;;;26.80;99.90;;;;;;5062677;28;20081;-81
2022/06/25 12:07:22;;;;;;;2.10;0.60;;;26.60;99.90;;;;;;5059072;28;20041;-82
2022/06/25 12:09:49;;;;;;;4.45;0.90;;;26.40;99.90;;;;;;5046450;28;20036;-82
2022/06/25 12:12:17;;;;;;;2.65;0.77;;;26.40;99.90;;;;;;5064389;28;20400;-83
2022/06/25 12:14:42;;;;;;;1.60;0.60;;;26.30;99.90;;;;;;5073633;28;20085;-83
2022/06/25 12:17:10;;;;;;;1.40;0.50;;;26.20;99.90;;;;;;5090896;28;20066;-83
2022/06/25 12:19:45;;;;;;;1.58;0.68;;;26.00;99.90;;;;;;5057424;28;20040;-83
2022/06/25 12:22:24;;;;;;;4.10;0.77;;;25.80;99.90;;;;;;5055453;28;20035;-82
2022/06/25 12:24:52;;;;;;;3.70;0.80;;;25.70;99.90;;;;;;5063528;28;20033;-82
2022/06/25 12:27:18;;;;;;;5.90;1.08;;;25.50;99.90;;;;;;5065932;28;20048;-82
2022/06/25 12:29:48;;;;;;;;;;;25.20;99.90;;;;;;5068404;28;20048;-81
2022/06/25 12:32:14;;;;;;;2.33;1.20;;;24.80;99.90;;;;;;5058178;28;19943;-81
2022/06/25 12:34:51;;;;;;;2.65;1.30;;;24.60;99.90;;;;;;5029668;28;20036;-81
2022/06/25 12:37:27;;;;;;;;;;;24.40;99.90;;;;;;5060841;28;20040;-81
2022/06/25 12:39:53;;;;;;;2.83;1.30;;;24.30;99.90;;;;;;5061825;28;19973;-81
2022/06/25 12:42:18;;;;;;;;;;;24.10;99.90;;;;;;5052307;28;20051;-81
2022/06/25 12:44:46;;;;;;;3.38;1.77;;;24.10;99.90;;;;;;5066838;28;20706;-81
2022/06/25 12:47:17;;;;;;;2.20;1.38;;;24.00;99.90;;;;;;5044704;28;20125;-81
2022/06/25 12:49:55;;;;;;;3.05;1.35;;;24.00;99.90;;;;;;5062407;28;20043;-81
2022/06/25 12:52:41;;;;;;;1.98;1.45;;;23.90;99.90;;;;;;5061909;28;20052;-81
2022/06/25 12:55:16;;;;;;;3.80;1.45;;;23.90;99.90;;;;;;5061660;28;20044;-80